Time;durP1;ratioP1;P1;durP2;ratioP2;P2;SDS_P1;SDS_P2;PMS_P1;PMS_P2;Temp;Humidity;BMP_temperature;BMP_pressure;BME280_temperature;BME280_humidity;BME280_pressure;Samples;Min_cycle;Max_cycle;Signal;HPM_P1;HPM_P2
2021/10/18 04:00:46;;;;;;;32.27;20.90;;;8.30;99.90;;;;;;6219781;22;20446;-69
2021/10/18 04:03:13;;;;;;;36.77;22.63;;;8.40;99.90;;;;;;6247989;23;20407;-69
2021/10/18 04:05:39;;;;;;;36.47;22.27;;;8.40;99.90;;;;;;6247563;23;21005;-69
2021/10/18 04:08:07;;;;;;;40.53;23.30;;;8.50;99.90;;;;;;6248171;23;20417;-69
2021/10/18 04:10:33;;;;;;;56.40;26.97;;;8.50;99.90;;;;;;6247960;22;20437;-69
2021/10/18 04:13:00;;;;;;;44.37;26.03;;;8.40;99.90;;;;;;6247806;23;20747;-69
2021/10/18 04:15:27;;;;;;;48.83;26.70;;;8.40;99.90;;;;;;6247592;23;20407;-69
2021/10/18 04:17:55;;;;;;;51.83;26.30;;;8.40;99.90;;;;;;6247241;23;20913;-69
2021/10/18 04:20:23;;;;;;;45.30;24.87;;;8.50;99.90;;;;;;6247483;22;20528;-69
2021/10/18 04:22:50;;;;;;;50.33;27.73;;;8.40;99.90;;;;;;6247179;23;20887;-69
2021/10/18 04:25:17;;;;;;;56.90;28.63;;;8.40;99.90;;;;;;6247217;23;20430;-69
2021/10/18 04:27:44;;;;;;;59.03;28.53;;;8.50;99.90;;;;;;6247283;23;20414;-68
2021/10/18 04:30:11;;;;;;;66.93;30.80;;;8.50;99.90;;;;;;6246940;22;20415;-69
2021/10/18 04:32:38;;;;;;;63.93;28.40;;;8.50;99.90;;;;;;6246891;23;20411;-69
2021/10/18 04:35:07;;;;;;;58.10;29.40;;;8.40;99.90;;;;;;6247437;23;20407;-68
2021/10/18 04:37:34;;;;;;;55.40;28.43;;;8.50;99.90;;;;;;6247070;23;20410;-69
2021/10/18 04:40:01;;;;;;;51.97;27.07;;;8.50;99.90;;;;;;6247351;23;20418;-69
2021/10/18 04:42:28;;;;;;;55.90;26.80;;;8.50;99.90;;;;;;6247390;22;20430;-68
2021/10/18 04:44:54;;;;;;;53.93;29.50;;;8.50;99.90;;;;;;6247721;23;20437;-69
2021/10/18 04:47:21;;;;;;;59.83;29.63;;;8.50;99.90;;;;;;6247689;23;20417;-69
2021/10/18 04:49:48;;;;;;;59.33;30.30;;;8.60;99.90;;;;;;6246965;23;20411;-68
2021/10/18 04:52:16;;;;;;;60.07;27.97;;;8.60;99.90;;;;;;6246835;22;20438;-69
2021/10/18 04:54:43;;;;;;;57.27;28.97;;;8.60;99.90;;;;;;6247335;23;20417;-69
2021/10/18 04:57:09;;;;;;;56.50;30.77;;;8.60;99.90;;;;;;6247211;23;20754;-69
2021/10/18 04:59:36;;;;;;;48.53;27.53;;;8.70;99.90;;;;;;6247608;23;20419;-69
2021/10/18 05:02:03;;;;;;;53.67;27.33;;;8.70;99.90;;;;;;6247366;22;20939;-68
2021/10/18 05:04:30;;;;;;;56.53;29.17;;;8.80;99.90;;;;;;6248083;23;20736;-69
2021/10/18 05:06:56;;;;;;;52.57;29.17;;;8.70;99.90;;;;;;6247586;23;20430;-69
2021/10/18 05:09:24;;;;;;;53.57;29.10;;;8.80;99.90;;;;;;6247320;23;20410;-68
2021/10/18 05:11:51;;;;;;;55.73;29.30;;;8.80;99.90;;;;;;6247184;22;20441;-69
2021/10/18 05:14:18;;;;;;;50.80;27.53;;;8.80;99.90;;;;;;6249468;23;20410;-69
2021/10/18 05:16:45;;;;;;;52.27;26.83;;;8.80;99.90;;;;;;6249474;23;20414;-69
2021/10/18 05:19:11;;;;;;;52.13;26.57;;;8.80;99.90;;;;;;6248782;23;20911;-69
2021/10/18 05:21:38;;;;;;;50.63;27.73;;;8.90;99.90;;;;;;6249301;22;20437;-69
2021/10/18 05:24:05;;;;;;;51.43;26.17;;;8.90;99.90;;;;;;6249153;23;20410;-69
2021/10/18 05:26:33;;;;;;;48.07;28.40;;;8.90;99.90;;;;;;6248672;23;20434;-68
2021/10/18 05:29:00;;;;;;;46.27;27.10;;;8.90;99.90;;;;;;6248938;23;20411;-69
2021/10/18 05:31:27;;;;;;;50.20;26.67;;;8.80;99.90;;;;;;6248156;22;20922;-70
2021/10/18 05:33:54;;;;;;;57.90;28.80;;;8.80;99.90;;;;;;6248790;23;20411;-69
2021/10/18 05:36:21;;;;;;;53.47;28.33;;;8.70;99.90;;;;;;6248270;23;20413;-69
2021/10/18 05:38:47;;;;;;;53.30;28.17;;;8.60;99.90;;;;;;6248878;23;20407;-69
2021/10/18 05:41:14;;;;;;;62.60;29.43;;;8.60;99.90;;;;;;6248485;22;20430;-69
2021/10/18 05:43:42;;;;;;;61.97;28.70;;;8.60;99.90;;;;;;6248261;23;20406;-70
2021/10/18 05:46:09;;;;;;;61.77;28.93;;;8.70;99.90;;;;;;6248620;23;20431;-69
2021/10/18 05:48:36;;;;;;;55.30;27.40;;;8.70;99.90;;;;;;6248823;23;20411;-68
2021/10/18 05:51:03;;;;;;;47.97;27.47;;;8.80;99.90;;;;;;6248613;22;20435;-69
2021/10/18 05:53:30;;;;;;;46.97;26.60;;;8.80;99.90;;;;;;6249517;23;20721;-70
2021/10/18 05:55:56;;;;;;;47.30;26.40;;;8.90;99.90;;;;;;6248555;23;20391;-70
2021/10/18 05:58:23;;;;;;;52.10;28.80;;;8.90;99.90;;;;;;6248654;23;20894;-70
2021/10/18 06:00:51;;;;;;;53.00;29.97;;;8.90;99.90;;;;;;6248221;22;20442;-70
2021/10/18 06:03:18;;;;;;;49.27;28.07;;;9.00;99.90;;;;;;6248551;23;20760;-70
2021/10/18 06:05:45;;;;;;;53.23;29.67;;;9.00;99.90;;;;;;6250153;23;20438;-69
2021/10/18 06:08:13;;;;;;;47.40;26.60;;;9.00;99.90;;;;;;6248910;23;20453;-70
2021/10/18 06:10:41;;;;;;;46.73;26.80;;;9.10;99.90;;;;;;6248262;22;20750;-70
2021/10/18 06:13:09;;;;;;;47.57;26.17;;;9.10;99.90;;;;;;6248706;23;20775;-71
2021/10/18 06:15:37;;;;;;;48.90;27.57;;;9.10;99.90;;;;;;6248139;23;20392;-71
2021/10/18 06:18:11;;;;;;;48.47;27.40;;;9.10;99.90;;;;;;6248287;23;20429;-71
2021/10/18 06:20:38;;;;;;;50.03;28.00;;;9.10;99.90;;;;;;6247648;22;20442;-71
2021/10/18 06:23:05;;;;;;;47.70;27.30;;;9.20;99.90;;;;;;6248138;23;20918;-71
2021/10/18 06:25:32;;;;;;;49.07;28.13;;;9.20;99.90;;;;;;6252877;23;20426;-71
2021/10/18 06:27:59;;;;;;;45.60;27.10;;;9.20;99.90;;;;;;6254617;23;20418;-71
2021/10/18 06:30:26;;;;;;;52.17;29.17;;;9.10;99.90;;;;;;6253139;22;20411;-71
2021/10/18 06:32:53;;;;;;;47.00;27.83;;;9.10;99.90;;;;;;6254695;23;20411;-71
2021/10/18 06:35:22;;;;;;;52.23;27.80;;;9.10;99.90;;;;;;6248452;23;20415;-71
2021/10/18 06:37:49;;;;;;;53.13;31.90;;;9.20;99.90;;;;;;6247524;23;20411;-70
2021/10/18 06:40:16;;;;;;;51.60;27.47;;;9.30;99.90;;;;;;6247418;22;20433;-71
2021/10/18 06:42:43;;;;;;;49.10;26.37;;;9.40;99.90;;;;;;6247884;23;20434;-71
2021/10/18 06:45:11;;;;;;;44.37;25.40;;;9.50;99.90;;;;;;6247214;23;20922;-71
2021/10/18 06:47:38;;;;;;;48.43;27.63;;;9.60;99.90;;;;;;6247578;23;20414;-71
2021/10/18 06:50:05;;;;;;;49.53;27.97;;;9.70;99.90;;;;;;6247845;23;20418;-71
2021/10/18 06:52:35;;;;;;;43.80;27.60;;;9.80;99.90;;;;;;6247082;22;20431;-71
2021/10/18 06:55:05;;;;;;;48.43;27.60;;;9.80;99.90;;;;;;6247628;23;20515;-71
2021/10/18 06:57:31;;;;;;;50.80;27.67;;;9.90;99.90;;;;;;6247947;23;20494;-70
2021/10/18 06:59:58;;;;;;;50.60;26.37;;;9.90;99.90;;;;;;6247307;23;20411;-70
2021/10/18 07:02:25;;;;;;;42.40;26.60;;;9.90;99.90;;;;;;6247217;22;20769;-71
2021/10/18 07:04:52;;;;;;;41.63;26.40;;;10.00;99.90;;;;;;6248704;23;20723;-71
2021/10/18 07:07:19;;;;;;;41.23;23.73;;;10.10;99.90;;;;;;6247072;23;20480;-71
2021/10/18 07:09:47;;;;;;;42.43;25.10;;;10.10;99.90;;;;;;6247640;23;20414;-71
2021/10/18 07:12:14;;;;;;;44.00;26.47;;;10.20;99.90;;;;;;6247127;22;20431;-71
2021/10/18 07:14:41;;;;;;;42.70;26.33;;;10.20;99.90;;;;;;6247101;23;20414;-72
2021/10/18 07:17:08;;;;;;;49.77;27.00;;;10.30;99.90;;;;;;6247332;23;20407;-71
2021/10/18 07:19:34;;;;;;;41.43;26.60;;;10.30;99.90;;;;;;6247148;23;20434;-71
2021/10/18 07:22:01;;;;;;;45.20;26.87;;;10.30;99.90;;;;;;6247119;22;20431;-73
2021/10/18 07:24:28;;;;;;;44.20;26.03;;;10.40;99.90;;;;;;6246833;23;20911;-72
2021/10/18 07:26:56;;;;;;;41.00;25.40;;;10.50;99.90;;;;;;6247002;23;20454;-71
2021/10/18 07:29:23;;;;;;;44.30;27.20;;;10.50;99.90;;;;;;6247294;23;20395;-72
2021/10/18 07:31:49;;;;;;;38.57;24.70;;;10.60;99.90;;;;;;6246444;22;20437;-71
2021/10/18 07:34:18;;;;;;;42.93;26.37;;;10.60;99.90;;;;;;6247289;23;20411;-71
2021/10/18 07:36:51;;;;;;;41.20;23.33;;;10.70;99.90;;;;;;6250376;23;20441;-71
2021/10/18 07:39:20;;;;;;;39.23;24.20;;;10.70;99.90;;;;;;6253787;23;20458;-72
2021/10/18 07:41:47;;;;;;;39.73;25.00;;;10.80;99.90;;;;;;6253382;22;20437;-71
2021/10/18 07:44:15;;;;;;;41.80;25.77;;;10.90;99.90;;;;;;6248778;23;20411;-71
2021/10/18 07:46:43;;;;;;;47.90;26.30;;;10.70;99.90;;;;;;6257494;23;20441;-71
2021/10/18 07:49:10;;;;;;;37.63;25.57;;;10.80;99.90;;;;;;6247447;23;20411;-71
2021/10/18 07:51:37;;;;;;;41.03;25.90;;;10.80;99.90;;;;;;6246879;22;20430;-71
2021/10/18 07:54:04;;;;;;;44.23;27.47;;;10.80;99.90;;;;;;6246991;23;20410;-71
2021/10/18 07:56:31;;;;;;;38.60;23.90;;;10.90;99.90;;;;;;6246935;23;20407;-71
2021/10/18 07:58:57;;;;;;;43.43;25.17;;;10.90;99.90;;;;;;6246515;23;20899;-71
2021/10/18 08:01:26;;;;;;;39.20;24.80;;;10.90;99.90;;;;;;6246413;22;20439;-71
2021/10/18 08:03:53;;;;;;;39.97;26.67;;;11.00;99.90;;;;;;6246931;23;20410;-71
2021/10/18 08:06:19;;;;;;;38.83;26.90;;;11.00;99.90;;;;;;6246900;23;20453;-72
2021/10/18 08:08:48;;;;;;;45.47;28.77;;;11.00;99.90;;;;;;6247055;23;20406;-72
2021/10/18 08:11:15;;;;;;;41.77;26.40;;;11.00;99.90;;;;;;6246908;22;20431;-71
2021/10/18 08:13:42;;;;;;;36.77;26.07;;;11.10;99.90;;;;;;6246238;23;20737;-71
2021/10/18 08:16:09;;;;;;;36.57;25.63;;;11.10;99.90;;;;;;6246763;23;20711;-71
2021/10/18 08:18:38;;;;;;;45.20;28.00;;;11.10;99.90;;;;;;6246622;23;20410;-71
2021/10/18 08:21:05;;;;;;;36.10;24.77;;;11.10;99.90;;;;;;6246376;22;20489;-69
2021/10/18 08:23:33;;;;;;;31.40;23.33;;;11.20;99.90;;;;;;6246374;23;20410;-69
2021/10/18 08:26:01;;;;;;;32.47;23.90;;;11.40;99.90;;;;;;6246476;23;20908;-72
2021/10/18 08:28:28;;;;;;;33.13;27.23;;;11.60;99.90;;;;;;6246547;23;20418;-71
2021/10/18 08:30:55;;;;;;;30.73;25.43;;;11.50;99.90;;;;;;6246115;22;20431;-72
2021/10/18 08:33:23;;;;;;;30.37;24.27;;;11.60;99.90;;;;;;6246197;23;20922;-72
2021/10/18 08:35:51;;;;;;;34.10;24.30;;;11.60;99.90;;;;;;6246718;23;20410;-72
2021/10/18 08:38:20;;;;;;;35.37;24.97;;;11.60;99.90;;;;;;6246129;23;20415;-72
2021/10/18 08:41:00;;;;;;;27.23;24.10;;;11.40;99.90;;;;;;6246532;22;20467;-72
2021/10/18 08:46:11;;;;;;;26.93;24.00;;;11.30;99.90;;;;;;6244898;23;20433;-72
2021/10/18 08:48:39;;;;;;;29.00;24.87;;;11.30;99.90;;;;;;6248036;23;20476;-72
2021/10/18 08:51:07;;;;;;;31.10;26.60;;;11.20;99.90;;;;;;6248570;22;20431;-71
2021/10/18 08:53:34;;;;;;;28.37;24.10;;;11.20;99.90;;;;;;6248689;23;20741;-72
2021/10/18 08:56:00;;;;;;;29.17;25.23;;;11.20;99.90;;;;;;6248523;23;20433;-72
2021/10/18 08:58:27;;;;;;;30.97;26.90;;;11.20;99.90;;;;;;6248631;23;20460;-71
2021/10/18 09:00:54;;;;;;;31.30;26.23;;;11.10;99.90;;;;;;6248414;22;20443;-71
2021/10/18 09:03:23;;;;;;;34.07;25.80;;;11.10;99.90;;;;;;6248610;23;20476;-71
2021/10/18 09:05:51;;;;;;;28.93;25.80;;;11.00;99.90;;;;;;6248748;23;20501;-71
2021/10/18 09:08:44;;;;;;;32.60;26.03;;;10.90;99.90;;;;;;6258285;23;20402;-71
2021/10/18 09:11:13;;;;;;;27.87;24.70;;;10.90;99.90;;;;;;6219544;22;20951;-71
2021/10/18 09:13:45;;;;;;;29.20;25.70;;;10.90;99.90;;;;;;6248799;23;20410;-71
2021/10/18 09:16:22;;;;;;;27.00;24.07;;;10.90;99.90;;;;;;6248284;23;20399;-71
2021/10/18 09:18:58;;;;;;;34.70;26.47;;;10.80;99.90;;;;;;6248587;23;20395;-71
2021/10/18 09:21:28;;;;;;;32.60;26.20;;;10.70;99.90;;;;;;6248126;22;20431;-71
2021/10/18 09:23:56;;;;;;;28.77;25.07;;;10.80;99.90;;;;;;6248291;23;20395;-71
2021/10/18 09:26:25;;;;;;;28.23;25.07;;;10.80;99.90;;;;;;6248582;23;20435;-71
2021/10/18 09:28:54;;;;;;;29.43;25.60;;;10.90;99.90;;;;;;6248296;23;20474;-71
2021/10/18 09:31:21;;;;;;;28.67;24.73;;;11.00;99.90;;;;;;6248388;22;20481;-71
2021/10/18 09:33:50;;;;;;;27.23;24.23;;;11.10;99.90;;;;;;6248919;23;20417;-72
2021/10/18 09:36:23;;;;;;;28.17;23.50;;;11.10;99.90;;;;;;6248969;23;20937;-71
2021/10/18 09:38:50;;;;;;;27.63;23.60;;;11.20;99.90;;;;;;6249019;23;20431;-71
2021/10/18 09:41:24;;;;;;;28.00;24.87;;;11.10;99.90;;;;;;6248425;22;20426;-71
2021/10/18 09:43:58;;;;;;;27.37;24.47;;;11.10;99.90;;;;;;6249074;23;20449;-72
2021/10/18 09:46:35;;;;;;;36.30;25.33;;;11.00;99.90;;;;;;6249302;23;20701;-72
2021/10/18 10:51:08;;;;;;;29.73;23.40;;;12.40;99.90;;;;;;6247777;22;20425;-71
2021/10/18 10:53:52;;;;;;;29.07;22.90;;;12.30;99.90;;;;;;6248110;23;20453;-71
2021/10/18 10:56:31;;;;;;;25.70;22.33;;;12.50;99.90;;;;;;6248296;23;20423;-72
2021/10/18 10:59:18;;;;;;;26.90;22.00;;;12.70;99.90;;;;;;6247491;23;20395;-71
2021/10/18 11:01:50;;;;;;;30.83;24.40;;;12.80;99.90;;;;;;6247094;22;20439;-71
2021/10/18 11:04:44;;;;;;;24.63;22.03;;;13.00;99.90;;;;;;6247563;23;20402;-72
2021/10/18 11:07:13;;;;;;;26.87;23.00;;;12.90;99.90;;;;;;6247653;23;20423;-71
2021/10/18 11:09:42;;;;;;;26.73;23.80;;;13.10;99.90;;;;;;6247514;23;20418;-71
2021/10/18 11:12:20;;;;;;;23.43;20.73;;;13.30;99.90;;;;;;6247065;22;20431;-72
2021/10/18 11:14:52;;;;;;;26.70;23.17;;;13.30;99.90;;;;;;6246808;23;20402;-73
2021/10/18 11:17:19;;;;;;;25.10;21.60;;;13.50;99.90;;;;;;6247323;23;20391;-72
2021/10/18 11:19:54;;;;;;;26.00;22.27;;;13.70;99.90;;;;;;6247218;23;20418;-72
2021/10/18 11:22:32;;;;;;;28.60;23.50;;;13.70;99.90;;;;;;6247211;22;20430;-73
2021/10/18 11:25:01;;;;;;;25.50;22.40;;;13.40;99.90;;;;;;6246786;23;20418;-72
2021/10/18 11:27:30;;;;;;;25.23;22.10;;;13.40;99.90;;;;;;6246838;23;20942;-72
2021/10/18 11:29:59;;;;;;;25.67;23.07;;;13.50;99.90;;;;;;6247546;23;20407;-72
2021/10/18 11:32:26;;;;;;;24.80;22.10;;;13.60;99.90;;;;;;6246829;22;20430;-72
2021/10/18 11:35:14;;;;;;;27.63;24.80;;;13.80;99.90;;;;;;6247387;23;20418;-72
2021/10/18 11:37:53;;;;;;;26.03;22.43;;;13.80;99.90;;;;;;6247939;23;20399;-72
2021/10/18 11:40:23;;;;;;;25.13;22.53;;;14.10;99.90;;;;;;6247179;22;20399;-72
2021/10/18 11:42:52;;;;;;;26.57;23.63;;;14.10;99.90;;;;;;6247069;23;20464;-73
2021/10/18 11:45:20;;;;;;;26.37;23.47;;;14.10;99.90;;;;;;6247124;23;20407;-73
2021/10/18 11:47:47;;;;;;;29.03;23.30;;;14.10;99.90;;;;;;6247018;23;20438;-72
2021/10/18 11:50:18;;;;;;;27.77;23.90;;;14.20;99.90;;;;;;6247197;23;20415;-72
2021/10/18 11:52:52;;;;;;;23.67;21.23;;;14.40;99.90;;;;;;6247208;23;20399;-72
2021/10/18 11:55:21;;;;;;;25.70;22.73;;;14.80;99.90;;;;;;6247527;23;20402;-73
2021/10/18 11:57:50;;;;;;;27.00;22.90;;;15.10;99.90;;;;;;6246600;23;20887;-72
2021/10/18 12:00:23;;;;;;;22.47;20.20;;;15.50;99.90;;;;;;6246637;22;20418;-72
2021/10/18 12:02:50;;;;;;;23.93;21.43;;;15.60;99.90;;;;;;6247247;23;20395;-72
2021/10/18 12:05:18;;;;;;;25.17;22.50;;;15.90;99.90;;;;;;6246898;23;20418;-72
2021/10/18 12:07:47;;;;;;;26.10;23.40;;;16.10;99.90;;;;;;6247060;23;20423;-71
2021/10/18 12:10:22;;;;;;;25.23;22.67;;;16.30;99.90;;;;;;6246530;23;20418;-72
2021/10/18 12:13:15;;;;;;;24.20;21.70;;;16.20;99.90;;;;;;6246758;23;20407;-72
2021/10/18 12:15:53;;;;;;;31.40;23.47;;;16.20;99.90;;;;;;6247198;23;20410;-72
2021/10/18 12:18:22;;;;;;;26.00;21.60;;;16.00;99.90;;;;;;6246853;23;20931;-71
2021/10/18 12:20:55;;;;;;;25.10;22.40;;;16.00;99.90;;;;;;6247088;22;20430;-71
2021/10/18 12:23:25;;;;;;;26.00;21.90;;;15.90;99.90;;;;;;6246859;23;20399;-71
2021/10/18 12:25:55;;;;;;;24.50;21.87;;;16.20;99.90;;;;;;6246908;23;20410;-72
2021/10/18 12:28:31;;;;;;;29.40;24.07;;;16.10;99.90;;;;;;6246947;23;20430;-72
2021/10/18 12:30:59;;;;;;;24.53;22.03;;;16.40;99.90;;;;;;6246443;22;20935;-71
2021/10/18 12:33:34;;;;;;;25.83;22.50;;;16.30;99.90;;;;;;6246748;23;20470;-71
2021/10/18 12:36:03;;;;;;;24.77;22.23;;;16.40;99.90;;;;;;6246801;23;20399;-72
2021/10/18 12:38:31;;;;;;;22.73;20.37;;;16.50;99.90;;;;;;6246609;23;20407;-71
2021/10/18 12:41:09;;;;;;;25.63;22.90;;;16.70;99.90;;;;;;6246127;22;20430;-71
2021/10/18 12:43:36;;;;;;;25.93;23.07;;;16.60;99.90;;;;;;6246754;23;20406;-71
2021/10/18 12:46:16;;;;;;;25.70;21.50;;;16.50;99.90;;;;;;6246612;23;20743;-73
2021/10/18 12:48:58;;;;;;;24.90;22.40;;;16.60;99.90;;;;;;6246351;23;20434;-71
2021/10/18 12:51:34;;;;;;;22.97;20.60;;;16.60;99.90;;;;;;6246606;22;20457;-72
2021/10/18 12:54:20;;;;;;;22.40;19.97;;;16.30;99.90;;;;;;6246631;23;20406;-71
2021/10/18 12:57:07;;;;;;;22.17;19.87;;;16.20;99.90;;;;;;6246778;23;20398;-71
2021/10/18 12:59:36;;;;;;;22.73;20.40;;;16.20;99.90;;;;;;6246986;23;20391;-72
2021/10/18 13:02:16;;;;;;;24.70;22.00;;;16.40;99.90;;;;;;6246205;22;20766;-71
2021/10/18 13:05:01;;;;;;;21.87;19.57;;;16.20;99.90;;;;;;6246701;23;20772;-71
2021/10/18 13:07:30;;;;;;;23.83;21.30;;;16.20;99.90;;;;;;6246987;23;20455;-71
2021/10/18 13:09:57;;;;;;;23.10;20.67;;;16.10;99.90;;;;;;6246531;23;20761;-71
2021/10/18 13:12:26;;;;;;;23.10;20.87;;;16.20;99.90;;;;;;6246219;22;20958;-71
2021/10/18 13:14:53;;;;;;;21.93;19.60;;;16.10;99.90;;;;;;6247557;23;20433;-72
2021/10/18 13:17:20;;;;;;;22.30;19.90;;;16.00;99.90;;;;;;6246271;23;20406;-72
2021/10/18 13:19:46;;;;;;;22.03;19.83;;;16.30;99.90;;;;;;6246191;23;20892;-71
2021/10/18 13:22:13;;;;;;;23.07;20.67;;;16.40;99.90;;;;;;6246841;22;20438;-71
2021/10/18 13:24:42;;;;;;;22.30;20.10;;;16.40;99.90;;;;;;6246162;23;20480;-72
2021/10/18 13:27:08;;;;;;;24.17;21.73;;;16.40;99.90;;;;;;6247314;23;20417;-71
2021/10/18 13:29:36;;;;;;;22.03;19.17;;;16.30;99.90;;;;;;6249631;23;20411;-72
2021/10/18 13:32:03;;;;;;;22.57;19.77;;;16.40;99.90;;;;;;6250564;22;20434;-70
2021/10/18 13:34:30;;;;;;;22.47;19.93;;;16.10;99.90;;;;;;6251902;23;20418;-70
2021/10/18 13:36:57;;;;;;;23.77;20.93;;;16.20;99.90;;;;;;6248957;23;20410;-71
2021/10/18 13:39:24;;;;;;;20.87;18.90;;;16.10;99.90;;;;;;6248061;23;20782;-71
2021/10/18 13:41:53;;;;;;;21.67;19.43;;;16.30;99.90;;;;;;6247904;22;20437;-70
2021/10/18 13:44:20;;;;;;;20.80;18.60;;;16.70;99.90;;;;;;6247874;23;20417;-71
2021/10/18 13:46:47;;;;;;;22.20;19.80;;;16.60;99.90;;;;;;6248120;23;20418;-72
2021/10/18 13:49:13;;;;;;;19.77;17.70;;;16.70;99.90;;;;;;6247974;23;20435;-71
2021/10/18 13:51:41;;;;;;;21.17;18.93;;;16.60;99.90;;;;;;6247542;22;20947;-71
2021/10/18 13:54:07;;;;;;;24.63;19.87;;;16.60;99.90;;;;;;6247826;23;20410;-71
2021/10/18 13:56:37;;;;;;;21.83;19.70;;;16.50;99.90;;;;;;6247777;23;20418;-72
2021/10/18 13:59:05;;;;;;;19.70;16.73;;;16.40;99.90;;;;;;6247867;23;20414;-72
2021/10/18 14:01:32;;;;;;;20.73;18.53;;;16.60;99.90;;;;;;6246968;22;20943;-71
2021/10/18 14:03:59;;;;;;;25.90;18.83;;;16.20;99.90;;;;;;6247566;23;20415;-71
2021/10/18 14:06:26;;;;;;;21.20;18.20;;;16.30;99.90;;;;;;6247542;23;20419;-72
2021/10/18 14:08:53;;;;;;;19.27;17.27;;;16.50;99.90;;;;;;6247631;23;20439;-72
2021/10/18 14:11:20;;;;;;;21.87;19.47;;;16.60;99.90;;;;;;6247860;22;20430;-72
2021/10/18 14:13:47;;;;;;;18.97;17.17;;;16.50;99.90;;;;;;6247775;23;20411;-72
2021/10/18 14:16:16;;;;;;;21.30;19.10;;;16.40;99.90;;;;;;6247531;23;20904;-72
2021/10/18 14:18:43;;;;;;;20.10;16.70;;;16.50;99.90;;;;;;6247763;23;20411;-73
2021/10/18 14:21:11;;;;;;;19.27;17.40;;;16.50;99.90;;;;;;6247723;22;20430;-72
2021/10/18 14:23:38;;;;;;;21.13;19.03;;;16.60;99.90;;;;;;6247785;23;20538;-72
2021/10/18 14:26:05;;;;;;;19.67;17.80;;;16.60;99.90;;;;;;6248120;23;20414;-72
2021/10/18 14:28:31;;;;;;;23.43;17.20;;;16.60;99.90;;;;;;6248055;23;20435;-71
2021/10/18 14:30:58;;;;;;;20.13;17.40;;;16.60;99.90;;;;;;6248222;22;20437;-72
2021/10/18 14:33:26;;;;;;;19.23;17.10;;;16.60;99.90;;;;;;6247215;23;20910;-71
2021/10/18 14:35:53;;;;;;;19.40;16.33;;;16.60;99.90;;;;;;6247540;23;20718;-71
2021/10/18 14:38:21;;;;;;;20.77;16.20;;;16.60;99.90;;;;;;6247472;23;20407;-73
2021/10/18 14:40:48;;;;;;;19.37;16.47;;;16.30;99.90;;;;;;6247280;22;20437;-71
2021/10/18 14:43:15;;;;;;;18.43;16.63;;;16.30;99.90;;;;;;6247528;23;20411;-72
2021/10/18 14:45:42;;;;;;;19.07;17.30;;;16.30;99.90;;;;;;6247305;23;20418;-71
2021/10/18 14:48:09;;;;;;;19.20;17.30;;;16.10;99.90;;;;;;6247507;23;20435;-71
2021/10/18 14:50:37;;;;;;;20.37;18.20;;;16.10;99.90;;;;;;6247476;22;20415;-71
2021/10/18 14:53:07;;;;;;;18.80;16.80;;;15.80;99.90;;;;;;6247475;23;20417;-72
2021/10/18 14:55:39;;;;;;;17.00;15.20;;;15.80;99.90;;;;;;6247386;23;20395;-72
2021/10/18 14:58:06;;;;;;;15.00;13.60;;;15.90;99.90;;;;;;6247335;23;20448;-71
2021/10/18 15:00:33;;;;;;;15.20;13.70;;;15.90;99.90;;;;;;6246955;22;20422;-71
2021/10/18 15:03:00;;;;;;;14.80;13.40;;;15.70;99.90;;;;;;6247182;23;20460;-72
2021/10/18 15:05:27;;;;;;;15.00;13.70;;;15.60;99.90;;;;;;6247506;23;20419;-71
2021/10/18 15:07:55;;;;;;;15.60;14.10;;;15.60;99.90;;;;;;6247334;23;20430;-71
2021/10/18 15:10:24;;;;;;;19.67;16.83;;;15.50;99.90;;;;;;6247273;22;20737;-71
2021/10/18 15:12:50;;;;;;;20.37;16.77;;;15.40;99.90;;;;;;6247436;23;20499;-72
2021/10/18 15:15:19;;;;;;;19.10;16.20;;;15.30;99.90;;;;;;6247489;23;20411;-72
2021/10/18 15:17:46;;;;;;;17.57;15.33;;;15.20;99.90;;;;;;6247588;23;20417;-72
2021/10/18 15:20:12;;;;;;;19.10;16.83;;;15.10;99.90;;;;;;6247310;23;20415;-71
2021/10/18 15:22:40;;;;;;;18.10;16.30;;;15.10;99.90;;;;;;6246880;22;20935;-72
2021/10/18 15:25:10;;;;;;;21.80;16.53;;;15.00;99.90;;;;;;6247209;23;20888;-71
2021/10/18 15:27:37;;;;;;;16.53;14.77;;;14.90;99.90;;;;;;6248516;23;20399;-71
2021/10/18 15:30:05;;;;;;;18.23;15.60;;;14.90;99.90;;;;;;6247625;23;20470;-71
2021/10/18 15:32:32;;;;;;;18.23;15.67;;;14.90;99.90;;;;;;6247448;22;20445;-72
2021/10/18 15:34:59;;;;;;;20.00;17.00;;;14.80;99.90;;;;;;6247664;23;20415;-72
2021/10/18 15:37:25;;;;;;;18.80;16.53;;;14.70;99.90;;;;;;6247699;23;20407;-72
2021/10/18 15:39:52;;;;;;;17.63;15.50;;;14.60;99.90;;;;;;6247653;23;20403;-71
2021/10/18 15:42:20;;;;;;;19.47;16.10;;;14.50;99.90;;;;;;6247694;22;20434;-72
2021/10/18 15:44:47;;;;;;;27.70;20.30;;;14.50;99.90;;;;;;6248354;23;20407;-72
2021/10/18 15:47:15;;;;;;;25.30;19.80;;;14.50;99.90;;;;;;6247948;23;20442;-73
2021/10/18 15:49:42;;;;;;;21.30;18.13;;;14.40;99.90;;;;;;6246857;23;20485;-71
2021/10/18 15:52:09;;;;;;;17.20;15.40;;;14.30;99.90;;;;;;6246935;22;20438;-71
2021/10/18 15:54:36;;;;;;;20.20;18.00;;;14.20;99.90;;;;;;6247830;23;20492;-71
2021/10/18 15:57:04;;;;;;;24.00;18.17;;;14.10;99.90;;;;;;6247798;23;20722;-71
2021/10/18 15:59:33;;;;;;;18.53;16.50;;;14.10;99.90;;;;;;6249063;23;20407;-72
2021/10/18 16:02:00;;;;;;;17.73;15.87;;;14.10;99.90;;;;;;6253089;22;20442;-72
2021/10/18 16:04:26;;;;;;;18.70;16.90;;;14.10;99.90;;;;;;6255720;23;20414;-72
2021/10/18 16:06:53;;;;;;;17.67;15.77;;;14.10;99.90;;;;;;6254321;23;20407;-72
2021/10/18 16:09:20;;;;;;;18.57;16.50;;;14.10;99.90;;;;;;6253447;23;20442;-69
2021/10/18 16:11:47;;;;;;;19.37;15.90;;;14.10;99.90;;;;;;6247691;22;20430;-69
2021/10/18 16:14:13;;;;;;;18.37;15.10;;;14.00;99.90;;;;;;6247427;23;20723;-67
2021/10/18 16:16:42;;;;;;;19.87;14.87;;;13.90;99.90;;;;;;6246957;23;20415;-67
2021/10/18 16:19:10;;;;;;;17.40;15.57;;;13.80;99.90;;;;;;6247224;23;20430;-67
2021/10/18 16:21:37;;;;;;;16.60;14.90;;;13.70;99.90;;;;;;6249435;22;20994;-68
2021/10/18 16:24:06;;;;;;;17.60;15.73;;;13.60;99.90;;;;;;6252621;23;20741;-68
2021/10/18 16:26:33;;;;;;;18.23;15.97;;;13.50;99.90;;;;;;6251606;23;20441;-68
2021/10/18 16:29:01;;;;;;;19.60;17.13;;;13.40;99.90;;;;;;6250687;23;20946;-68
2021/10/18 16:31:28;;;;;;;18.23;16.20;;;13.30;99.90;;;;;;6249817;22;20431;-68
2021/10/18 16:33:56;;;;;;;19.80;17.70;;;13.20;99.90;;;;;;6247525;23;20421;-67
2021/10/18 16:36:23;;;;;;;19.63;17.53;;;13.20;99.90;;;;;;6247782;23;20418;-69
2021/10/18 16:38:50;;;;;;;24.83;18.50;;;13.10;99.90;;;;;;6247660;23;20411;-67
2021/10/18 16:41:17;;;;;;;23.00;17.43;;;13.10;99.90;;;;;;6247845;22;20430;-69
2021/10/18 16:43:44;;;;;;;24.67;21.00;;;13.00;99.90;;;;;;6247434;23;20411;-68
2021/10/18 16:46:11;;;;;;;22.50;19.60;;;13.00;99.90;;;;;;6247179;23;20762;-68
2021/10/18 16:48:37;;;;;;;23.07;20.77;;;12.90;99.90;;;;;;6247012;23;20439;-68
2021/10/18 16:51:05;;;;;;;23.47;21.07;;;12.90;99.90;;;;;;6246776;22;20765;-67
2021/10/18 16:53:32;;;;;;;27.60;24.70;;;12.90;99.90;;;;;;6245850;23;20419;-68
2021/10/18 16:55:59;;;;;;;22.50;20.30;;;12.90;99.90;;;;;;6247067;23;20175;-68
2021/10/18 16:58:26;;;;;;;23.13;20.73;;;12.80;99.90;;;;;;6247587;23;20406;-70
2021/10/18 17:00:52;;;;;;;22.47;19.67;;;12.80;99.90;;;;;;6246706;22;20438;-66
2021/10/18 17:03:19;;;;;;;21.77;18.50;;;12.80;99.90;;;;;;6247042;23;20913;-68
2021/10/18 17:05:47;;;;;;;22.40;20.20;;;12.70;99.90;;;;;;6246760;23;20411;-67
2021/10/18 17:08:16;;;;;;;21.93;18.30;;;12.70;99.90;;;;;;6247092;23;20415;-68
2021/10/18 17:10:43;;;;;;;20.70;18.20;;;12.70;99.90;;;;;;6248924;22;20798;-67
2021/10/18 17:13:09;;;;;;;19.70;17.63;;;12.70;99.90;;;;;;6248383;23;20772;-68
2021/10/18 17:15:36;;;;;;;18.47;16.20;;;12.80;99.90;;;;;;6248707;23;20417;-67
2021/10/18 17:18:03;;;;;;;17.53;15.50;;;13.00;99.90;;;;;;6248419;23;20732;-66
2021/10/18 17:20:30;;;;;;;20.30;18.23;;;13.10;99.90;;;;;;6249445;22;20888;-67
2021/10/18 17:22:58;;;;;;;17.60;15.90;;;13.20;99.90;;;;;;6249543;23;20431;-66
2021/10/18 17:25:26;;;;;;;19.47;17.03;;;13.30;99.90;;;;;;6249946;23;20415;-67
2021/10/18 17:27:53;;;;;;;19.10;17.13;;;13.40;99.90;;;;;;6249094;23;20411;-67
2021/10/18 17:30:19;;;;;;;20.80;18.67;;;13.40;99.90;;;;;;6249650;22;20442;-69
2021/10/18 17:32:46;;;;;;;21.60;19.40;;;13.40;99.90;;;;;;6249232;23;20410;-67
2021/10/18 17:35:13;;;;;;;21.10;19.00;;;13.40;99.90;;;;;;6248723;23;20422;-67
2021/10/18 17:37:40;;;;;;;23.50;20.77;;;13.30;99.90;;;;;;6248915;23;20410;-67
2021/10/18 17:40:08;;;;;;;31.10;24.33;;;13.30;99.90;;;;;;6248676;23;20724;-68